createdAt,value
2023-02-09T00:00:07.509Z,7.20
2023-02-09T00:02:42.168Z,12.70
2023-02-09T00:05:10.938Z,24.60
2023-02-09T00:07:39.113Z,25.40
2023-02-09T00:10:07.639Z,22.70
2023-02-09T00:12:56.030Z,31.70
2023-02-09T00:15:24.814Z,7.20
2023-02-09T00:17:54.619Z,11.20
2023-02-09T00:20:23.143Z,22.00
2023-02-09T00:22:51.503Z,24.10
2023-02-09T00:25:20.164Z,21.90
2023-02-09T00:27:48.745Z,24.10
2023-02-09T00:30:17.255Z,8.80
2023-02-09T00:32:47.856Z,10.20
2023-02-09T00:35:17.452Z,16.00
2023-02-09T00:37:45.741Z,24.80
2023-02-09T00:40:14.970Z,27.60
2023-02-09T00:42:44.231Z,26.40
2023-02-09T00:45:13.843Z,10.00
2023-02-09T00:47:42.708Z,6.20
2023-02-09T00:50:11.229Z,18.20
2023-02-09T00:52:40.614Z,26.30
2023-02-09T00:55:09.506Z,29.20
2023-02-09T00:57:39.222Z,30.00
2023-02-09T01:00:08.622Z,14.90
2023-02-09T01:02:39.964Z,9.40
2023-02-09T01:05:08.909Z,15.60
2023-02-09T01:07:39.507Z,17.90
2023-02-09T01:10:08.965Z,19.20
2023-02-09T01:12:40.080Z,17.50
2023-02-09T01:15:09.631Z,13.90
2023-02-09T01:17:39.345Z,9.50
2023-02-09T01:20:09.823Z,17.80
2023-02-09T01:22:38.865Z,20.80
2023-02-09T01:25:08.157Z,23.80
2023-02-09T01:27:37.997Z,25.60
2023-02-09T01:30:07.206Z,10.20
2023-02-09T01:32:36.929Z,8.20
2023-02-09T01:35:05.887Z,15.80
2023-02-09T01:37:34.989Z,20.70
2023-02-09T01:40:04.652Z,22.60
2023-02-09T01:42:33.996Z,19.40
2023-02-09T01:45:15.995Z,10.10
2023-02-09T01:47:47.386Z,7.10
2023-02-09T01:50:15.800Z,15.40
2023-02-09T01:52:45.125Z,19.70
2023-02-09T01:55:15.343Z,26.20
2023-02-09T01:57:48.620Z,26.00
2023-02-09T02:00:18.528Z,9.30
2023-02-09T02:03:00.552Z,10.90
2023-02-09T02:05:29.170Z,18.60
2023-02-09T02:08:00.565Z,28.10
2023-02-09T02:10:30.856Z,23.50
2023-02-09T02:12:59.476Z,26.40
2023-02-09T02:15:36.447Z,6.20
2023-02-09T02:18:18.236Z,7.70
2023-02-09T02:20:59.824Z,11.70
2023-02-09T02:23:44.642Z,22.20
2023-02-09T02:26:22.801Z,20.10
2023-02-09T02:29:09.437Z,14.10
2023-02-09T02:32:00.080Z,4.40
2023-02-09T02:34:41.280Z,12.90
2023-02-09T02:37:33.410Z,21.60
2023-02-09T02:40:12.948Z,19.20
2023-02-09T02:42:49.529Z,24.00
2023-02-09T02:45:23.936Z,5.40
2023-02-09T02:48:20.295Z,6.00
2023-02-09T02:50:53.750Z,16.50
2023-02-09T02:53:24.720Z,24.00
2023-02-09T02:55:54.738Z,24.00
2023-02-09T02:58:23.421Z,15.90
2023-02-09T03:00:53.013Z,6.20
2023-02-09T03:03:23.111Z,8.20
2023-02-09T03:05:51.629Z,14.50
2023-02-09T03:08:20.222Z,22.20
2023-02-09T03:10:48.601Z,25.30
2023-02-09T03:13:31.124Z,14.50
2023-02-09T03:16:08.953Z,8.20
2023-02-09T03:18:56.365Z,12.30
2023-02-09T03:21:34.523Z,18.20
2023-02-09T03:24:25.226Z,24.50
2023-02-09T03:27:02.756Z,15.70
2023-02-09T03:29:31.018Z,6.70
2023-02-09T03:31:59.642Z,9.50
2023-02-09T03:34:28.373Z,14.60
2023-02-09T03:36:57.065Z,20.90
2023-02-09T03:39:25.629Z,13.80
2023-02-09T03:41:54.936Z,19.20
2023-02-09T03:44:26.801Z,7.30
2023-02-09T03:47:03.060Z,9.10
2023-02-09T03:49:34.092Z,11.00
2023-02-09T03:52:03.036Z,12.80
2023-02-09T03:54:31.777Z,20.10
2023-02-09T03:57:00.447Z,11.80
2023-02-09T03:59:29.281Z,4.80
2023-02-09T04:01:58.803Z,8.50
2023-02-09T04:04:27.560Z,18.80
2023-02-09T04:06:56.457Z,21.60
2023-02-09T04:09:27.382Z,23.20
2023-02-09T04:11:56.564Z,16.60
2023-02-09T04:14:25.879Z,5.40
2023-02-09T04:16:55.374Z,8.30
2023-02-09T04:19:23.838Z,14.20
2023-02-09T04:21:52.856Z,26.00
2023-02-09T04:24:28.683Z,27.10
2023-02-09T04:26:56.966Z,17.40
2023-02-09T04:29:25.780Z,7.10
2023-02-09T04:31:54.573Z,9.10
2023-02-09T04:34:24.862Z,17.20
2023-02-09T04:36:56.761Z,13.00
2023-02-09T04:39:25.413Z,23.80
2023-02-09T04:41:54.523Z,19.40
2023-02-09T04:44:23.528Z,6.20
2023-02-09T04:46:51.982Z,7.50
2023-02-09T04:49:20.561Z,17.10
2023-02-09T04:51:48.964Z,20.20
2023-02-09T04:54:17.938Z,18.00
2023-02-09T04:56:47.230Z,17.00
2023-02-09T04:59:34.858Z,8.90
2023-02-09T05:02:03.236Z,9.00
2023-02-09T05:04:32.330Z,17.40
2023-02-09T05:07:10.346Z,25.40
2023-02-09T05:09:39.227Z,40.60
2023-02-09T05:12:10.372Z,38.70
2023-02-09T05:14:38.965Z,11.30
2023-02-09T05:17:07.640Z,10.30
2023-02-09T05:19:37.049Z,13.80
2023-02-09T05:22:05.524Z,14.50
2023-02-09T05:24:35.151Z,19.90
2023-02-09T05:27:03.725Z,21.00
2023-02-09T05:29:32.605Z,13.70
2023-02-09T05:32:01.125Z,5.70
2023-02-09T05:34:30.283Z,9.50
2023-02-09T05:36:59.170Z,11.10
2023-02-09T05:39:28.065Z,20.70
2023-02-09T05:42:15.074Z,22.90
2023-02-09T05:44:47.995Z,20.90
2023-02-09T05:47:18.297Z,9.00
2023-02-09T05:49:46.679Z,6.50
2023-02-09T05:52:15.350Z,13.20
2023-02-09T05:54:43.786Z,18.70
2023-02-09T05:57:12.304Z,14.90
2023-02-09T05:59:40.700Z,17.40
2023-02-09T06:02:09.171Z,11.80
2023-02-09T06:04:37.952Z,6.80
2023-02-09T06:07:06.433Z,10.40
2023-02-09T06:09:35.016Z,14.00
2023-02-09T06:12:03.626Z,11.20
2023-02-09T06:14:32.072Z,16.90
2023-02-09T06:17:02.702Z,20.80
2023-02-09T06:19:31.933Z,11.90
2023-02-09T06:22:01.204Z,9.60
2023-02-09T06:24:29.892Z,14.40
2023-02-09T06:26:58.307Z,15.70
2023-02-09T06:29:27.152Z,16.30
2023-02-09T06:31:55.762Z,20.20
2023-02-09T06:34:25.979Z,21.30
2023-02-09T06:36:59.566Z,10.50
2023-02-09T06:39:29.813Z,6.50
2023-02-09T06:41:59.090Z,8.50
2023-02-09T06:44:27.976Z,11.90
2023-02-09T06:46:56.349Z,10.50
2023-02-09T06:49:26.712Z,14.10
2023-02-09T06:51:55.783Z,19.30
2023-02-09T06:54:29.370Z,14.50
2023-02-09T06:56:58.060Z,8.90
2023-02-09T06:59:26.757Z,9.80
2023-02-09T07:01:55.380Z,7.30
2023-02-09T07:04:24.023Z,11.40
2023-02-09T07:06:52.593Z,8.60
2023-02-09T07:09:22.810Z,14.90
2023-02-09T07:11:55.524Z,16.30
2023-02-09T07:14:24.281Z,13.90
2023-02-09T07:16:52.655Z,13.60
2023-02-09T07:19:21.447Z,17.90
2023-02-09T07:21:50.335Z,18.10
2023-02-09T07:24:18.921Z,12.20
2023-02-09T07:26:47.615Z,8.70
2023-02-09T07:29:16.291Z,9.20
2023-02-09T07:31:44.985Z,11.30
2023-02-09T07:34:13.665Z,16.60
2023-02-09T07:36:42.245Z,19.20
2023-02-09T07:39:10.956Z,16.00
2023-02-09T07:41:39.819Z,16.70
2023-02-09T07:44:09.628Z,18.30
2023-02-09T07:46:39.279Z,14.20
2023-02-09T07:49:08.124Z,18.40
2023-02-09T07:51:37.118Z,17.00
2023-02-09T07:54:07.459Z,15.10
2023-02-09T07:56:38.783Z,16.70
2023-02-09T07:59:07.472Z,13.80
2023-02-09T08:01:36.305Z,12.30
2023-02-09T08:04:05.251Z,15.10
2023-02-09T08:06:43.203Z,12.40
2023-02-09T08:09:15.008Z,14.50
2023-02-09T08:11:49.495Z,17.90
2023-02-09T08:14:20.804Z,17.00
2023-02-09T08:16:50.022Z,14.30
2023-02-09T08:19:21.309Z,15.90
2023-02-09T08:21:49.924Z,14.40
2023-02-09T08:24:18.798Z,12.90
2023-02-09T08:26:47.724Z,16.10
2023-02-09T08:29:16.461Z,13.40
2023-02-09T08:31:45.995Z,11.00
2023-02-09T08:34:18.350Z,17.30
2023-02-09T08:36:46.949Z,18.40
2023-02-09T08:39:15.620Z,11.40
2023-02-09T08:41:46.111Z,16.60
2023-02-09T08:44:14.950Z,9.90
2023-02-09T08:46:43.318Z,6.80
2023-02-09T08:49:11.900Z,13.30
2023-02-09T08:51:40.311Z,11.60
2023-02-09T08:54:08.908Z,13.90
2023-02-09T08:56:39.005Z,15.20
2023-02-09T08:59:07.374Z,8.60
2023-02-09T09:01:36.765Z,8.70
2023-02-09T09:04:05.346Z,11.20
2023-02-09T09:06:34.852Z,13.10
2023-02-09T09:09:03.380Z,13.90
2023-02-09T09:11:32.024Z,11.60
2023-02-09T09:14:00.509Z,13.90
2023-02-09T09:16:32.524Z,13.50
2023-02-09T09:19:01.470Z,13.80
2023-02-09T09:21:30.353Z,14.10
2023-02-09T09:30:27.850Z,13.90
2023-02-09T09:32:56.492Z,12.60
2023-02-09T09:35:27.362Z,12.50
2023-02-09T09:37:57.688Z,9.70
2023-02-09T09:40:31.194Z,11.20
2023-02-09T09:43:09.110Z,10.00
2023-02-09T09:45:38.471Z,7.60
2023-02-09T09:48:07.896Z,7.30
2023-02-09T09:50:38.260Z,8.10
2023-02-09T09:53:33.593Z,8.20
2023-02-09T09:56:07.387Z,7.90
2023-02-09T09:58:38.325Z,7.90
2023-02-09T10:01:14.223Z,8.50
2023-02-09T10:03:43.115Z,6.50
2023-02-09T10:06:22.251Z,7.00
2023-02-09T10:08:57.579Z,7.10
2023-02-09T10:11:30.841Z,6.30
2023-02-09T10:13:59.264Z,6.70
2023-02-09T10:16:30.696Z,6.10
2023-02-09T10:19:04.313Z,7.30
2023-02-09T10:21:34.940Z,7.10
2023-02-09T10:24:13.561Z,5.80
2023-02-09T10:26:43.247Z,5.50
2023-02-09T10:29:11.541Z,5.90
2023-02-09T10:31:45.532Z,3.70
2023-02-09T10:34:15.722Z,6.20
2023-02-09T10:36:48.347Z,5.50
2023-02-09T10:39:18.391Z,5.50
2023-02-09T10:41:51.458Z,5.80
2023-02-09T10:44:25.037Z,5.50
2023-02-09T10:47:19.350Z,5.80
2023-02-09T10:49:53.566Z,3.40
2023-02-09T10:52:23.774Z,3.90
2023-02-09T10:54:57.787Z,4.80
2023-02-09T10:57:28.440Z,4.60
2023-02-09T10:59:59.248Z,2.90
2023-02-09T11:02:30.906Z,4.10
2023-02-09T11:04:59.613Z,3.20
2023-02-09T11:07:32.580Z,3.50
2023-02-09T11:10:02.630Z,3.80
2023-02-09T11:12:31.497Z,3.60
2023-02-09T11:15:00.172Z,4.10
2023-02-09T11:17:42.482Z,2.70
2023-02-09T11:20:35.779Z,4.80
2023-02-09T11:23:23.475Z,4.40
2023-02-09T11:25:59.537Z,4.20
2023-02-09T11:28:44.399Z,4.40
2023-02-09T11:31:17.112Z,3.90
2023-02-09T11:34:13.927Z,2.80
2023-02-09T11:36:54.795Z,2.20
2023-02-09T11:39:41.826Z,3.30
2023-02-09T11:42:39.175Z,1.80
2023-02-09T11:45:09.169Z,2.50
2023-02-09T11:47:44.039Z,3.60
2023-02-09T11:50:19.806Z,2.10
2023-02-09T11:52:52.912Z,2.60
2023-02-09T11:55:52.926Z,1.70
2023-02-09T11:58:32.554Z,1.80
2023-02-09T12:01:17.154Z,1.10
2023-02-09T12:03:54.610Z,1.70
2023-02-09T12:06:23.319Z,1.10
2023-02-09T12:08:57.986Z,1.00
2023-02-09T12:11:47.262Z,0.70
2023-02-09T12:14:41.733Z,1.00
2023-02-09T12:17:35.105Z,1.20
2023-02-09T12:20:04.298Z,0.90
2023-02-09T12:22:36.159Z,1.20
2023-02-09T12:25:37.015Z,1.50
2023-02-09T12:28:09.222Z,1.10
2023-02-09T12:30:41.229Z,1.40
2023-02-09T12:33:25.487Z,1.40
2023-02-09T12:36:03.890Z,1.80
2023-02-09T12:38:55.475Z,1.80
2023-02-09T12:41:31.262Z,1.30
2023-02-09T12:44:12.027Z,1.20
2023-02-09T12:46:53.202Z,1.60
2023-02-09T12:49:29.040Z,1.60
2023-02-09T12:52:00.933Z,1.70
2023-02-09T12:54:44.859Z,1.80
2023-02-09T12:57:16.649Z,1.60
2023-02-09T12:59:52.900Z,1.70
2023-02-09T13:02:36.027Z,0.60
2023-02-09T13:05:15.070Z,1.20
2023-02-09T13:08:09.017Z,1.40
2023-02-09T13:11:23.485Z,1.90
2023-02-09T13:13:57.347Z,2.40
2023-02-09T13:16:35.169Z,1.30
2023-02-09T13:19:09.935Z,1.80
2023-02-09T13:21:53.756Z,2.00
2023-02-09T13:24:34.893Z,1.60
2023-02-09T13:27:03.308Z,1.30
2023-02-09T13:29:32.716Z,1.60
2023-02-09T13:32:07.690Z,1.60
2023-02-09T13:34:38.293Z,1.30
2023-02-09T13:37:22.656Z,1.70
2023-02-09T13:39:57.838Z,1.90
2023-02-09T13:42:28.751Z,1.20
2023-02-09T13:44:59.068Z,1.30
2023-02-09T13:47:27.525Z,1.40
2023-02-09T13:50:01.110Z,2.10
2023-02-09T13:52:36.380Z,1.50
2023-02-09T13:55:16.744Z,2.10
2023-02-09T13:58:00.441Z,2.40
2023-02-09T14:00:28.933Z,2.20
2023-02-09T14:03:02.613Z,2.50
2023-02-09T14:06:09.072Z,1.80
2023-02-09T14:08:38.298Z,2.30
2023-02-09T14:11:36.501Z,2.20
2023-02-09T14:14:23.338Z,2.00
2023-02-09T14:17:25.248Z,1.50
2023-02-09T14:19:57.567Z,2.70
2023-02-09T14:22:39.109Z,2.40
2023-02-09T14:25:14.545Z,1.40
2023-02-09T14:27:47.252Z,2.80
2023-02-09T14:30:36.525Z,2.70
2023-02-09T14:33:05.282Z,2.70
2023-02-09T14:35:39.534Z,2.50
2023-02-09T14:38:37.082Z,3.10
2023-02-09T14:41:32.107Z,2.40
2023-02-09T14:44:02.181Z,3.20
2023-02-09T14:46:53.023Z,2.90
2023-02-09T14:49:21.987Z,2.50
2023-02-09T14:51:52.903Z,3.30
2023-02-09T14:54:28.427Z,2.00
2023-02-09T14:56:58.475Z,3.00
2023-02-09T14:59:27.269Z,1.40
2023-02-09T15:01:55.790Z,2.60
2023-02-09T15:04:24.337Z,1.50
2023-02-09T15:06:59.092Z,2.60
2023-02-09T15:09:32.125Z,3.10
2023-02-09T15:12:05.176Z,2.50
2023-02-09T15:14:44.700Z,3.00
2023-02-09T15:17:17.278Z,3.60
2023-02-09T15:19:46.239Z,2.80
2023-02-09T15:22:16.721Z,3.80
2023-02-09T15:24:46.569Z,4.80
2023-02-09T15:27:18.028Z,3.50
2023-02-09T15:29:46.815Z,3.70
2023-02-09T15:32:16.544Z,4.20
2023-02-09T15:34:45.213Z,3.30
2023-02-09T15:37:21.266Z,3.00
2023-02-09T15:39:51.399Z,2.10
2023-02-09T15:42:38.914Z,2.30
2023-02-09T15:45:33.617Z,3.40
2023-02-09T15:48:02.909Z,2.60
2023-02-09T15:50:32.713Z,2.60
2023-02-09T15:53:08.655Z,3.10
2023-02-09T15:55:37.168Z,2.80
2023-02-09T15:58:17.122Z,2.90
2023-02-09T16:00:46.201Z,3.10
2023-02-09T16:03:21.784Z,3.60
2023-02-09T16:06:00.728Z,4.00
2023-02-09T16:08:32.603Z,4.30
2023-02-09T16:11:01.431Z,3.50
2023-02-09T16:13:50.411Z,2.80
2023-02-09T16:16:20.215Z,3.80
2023-02-09T16:18:50.145Z,4.40
2023-02-09T16:21:24.849Z,3.90
2023-02-09T16:23:54.667Z,3.80
2023-02-09T16:26:24.592Z,4.10
2023-02-09T16:28:53.568Z,4.50
2023-02-09T16:31:22.415Z,5.30
2023-02-09T16:33:51.643Z,5.00
2023-02-09T16:36:24.959Z,5.80
2023-02-09T16:38:54.548Z,5.80
2023-02-09T16:41:41.675Z,3.60
2023-02-09T16:44:19.082Z,5.10
2023-02-09T16:46:48.799Z,4.50
2023-02-09T16:49:20.053Z,4.10
2023-02-09T16:51:48.901Z,4.20
2023-02-09T16:54:17.484Z,3.90
2023-02-09T16:56:54.177Z,5.30
2023-02-09T16:59:23.563Z,2.60
2023-02-09T17:01:52.277Z,3.20
2023-02-09T17:04:20.895Z,4.00
2023-02-09T17:06:50.756Z,3.80
2023-02-09T17:09:19.392Z,2.50
2023-02-09T17:11:48.099Z,3.40
2023-02-09T17:14:16.590Z,4.40
2023-02-09T17:16:45.325Z,4.10
2023-02-09T17:19:15.537Z,4.80
2023-02-09T17:21:44.288Z,5.40
2023-02-09T17:24:16.777Z,3.60
2023-02-09T17:26:45.279Z,4.50
2023-02-09T17:29:14.036Z,3.60
2023-02-09T17:31:52.930Z,5.70
2023-02-09T17:34:27.372Z,2.80
2023-02-09T17:36:59.857Z,4.00
2023-02-09T17:39:30.890Z,4.70
2023-02-09T17:42:00.184Z,4.30
2023-02-09T17:44:45.026Z,3.70
2023-02-09T17:47:18.757Z,5.70
2023-02-09T17:49:47.388Z,4.30
2023-02-09T17:52:17.709Z,5.20
2023-02-09T17:54:46.461Z,3.90
2023-02-09T17:57:15.851Z,3.90
2023-02-09T17:59:44.250Z,4.20
2023-02-09T18:02:24.206Z,3.60
2023-02-09T18:04:52.660Z,5.70
2023-02-09T18:07:21.175Z,4.30
2023-02-09T18:09:49.936Z,5.00
2023-02-09T18:12:20.192Z,6.80
2023-02-09T18:14:48.541Z,5.50
2023-02-09T18:17:17.731Z,6.60
2023-02-09T18:19:46.823Z,6.30
2023-02-09T18:22:20.254Z,4.70
2023-02-09T18:24:48.913Z,5.80
2023-02-09T18:27:19.160Z,6.80
2023-02-09T18:29:51.500Z,7.40
2023-02-09T18:32:21.312Z,5.90
2023-02-09T18:34:50.398Z,7.30
2023-02-09T18:37:20.667Z,8.90
2023-02-09T18:39:49.617Z,5.80
2023-02-09T18:42:20.458Z,7.20
2023-02-09T18:44:54.393Z,7.50
2023-02-09T18:47:30.317Z,5.90
2023-02-09T18:49:59.114Z,5.90
2023-02-09T18:52:27.888Z,4.90
2023-02-09T18:54:59.032Z,5.80
2023-02-09T18:57:27.410Z,6.80
2023-02-09T18:59:56.190Z,6.40
2023-02-09T19:02:24.841Z,6.20
2023-02-09T19:04:56.236Z,4.70
2023-02-09T19:07:28.293Z,5.60
2023-02-09T19:09:56.980Z,4.70
2023-02-09T19:12:30.280Z,6.10
2023-02-09T19:15:00.216Z,6.40
2023-02-09T19:17:30.101Z,7.50
2023-02-09T19:19:58.964Z,5.60
2023-02-09T19:22:27.688Z,7.60
2023-02-09T19:24:59.646Z,5.40
2023-02-09T19:27:29.965Z,5.60
2023-02-09T19:29:58.445Z,5.40
2023-02-09T19:32:28.678Z,7.20
2023-02-09T19:34:58.511Z,4.60
2023-02-09T19:37:27.164Z,5.10
2023-02-09T19:40:05.371Z,4.10
2023-02-09T19:42:34.216Z,6.70
2023-02-09T19:45:02.473Z,6.40
2023-02-09T19:47:31.426Z,8.10
2023-02-09T19:50:01.247Z,6.20
2023-02-09T19:52:29.926Z,6.90
2023-02-09T19:54:59.326Z,5.70
2023-02-09T19:57:28.022Z,6.20
2023-02-09T19:59:56.600Z,6.30
2023-02-09T20:02:25.084Z,5.90
2023-02-09T20:04:54.237Z,5.60
2023-02-09T20:07:23.079Z,6.70
2023-02-09T20:09:53.294Z,5.90
2023-02-09T20:12:23.856Z,6.00
2023-02-09T20:14:54.155Z,4.20
2023-02-09T20:17:23.038Z,6.50
2023-02-09T20:19:51.629Z,7.20
2023-02-09T20:22:20.398Z,4.80
2023-02-09T20:24:48.885Z,6.60
2023-02-09T20:27:19.308Z,5.80
2023-02-09T20:29:47.575Z,6.70
2023-02-09T20:32:16.418Z,4.20
2023-02-09T20:34:47.123Z,5.60
2023-02-09T20:37:15.480Z,5.20
2023-02-09T20:39:43.964Z,5.60
2023-02-09T20:42:31.285Z,7.30
2023-02-09T20:45:23.019Z,5.90
2023-02-09T20:47:52.200Z,6.10
2023-02-09T20:50:20.686Z,6.70
2023-02-09T20:52:49.270Z,5.70
2023-02-09T20:55:18.236Z,5.10
2023-02-09T20:57:46.754Z,8.00
2023-02-09T21:00:15.936Z,4.90
2023-02-09T21:02:44.418Z,3.80
2023-02-09T21:05:13.147Z,5.30
2023-02-09T21:07:41.991Z,5.30
2023-02-09T21:10:13.054Z,5.20
2023-02-09T21:12:41.626Z,4.40
2023-02-09T21:15:10.205Z,4.80
2023-02-09T21:17:52.818Z,5.20
2023-02-09T21:21:56.565Z,3.40
2023-02-09T21:24:25.622Z,6.10
2023-02-09T21:26:54.308Z,3.10
2023-02-09T21:29:23.029Z,5.20
2023-02-09T21:31:52.288Z,4.80
2023-02-09T21:34:21.382Z,4.60
2023-02-09T21:36:49.887Z,5.50
2023-02-09T21:39:18.447Z,6.90
2023-02-09T21:42:05.982Z,5.20
2023-02-09T21:44:37.022Z,5.10
2023-02-09T21:47:05.807Z,6.50
2023-02-09T21:49:34.797Z,5.40
2023-02-09T21:52:03.370Z,7.40
2023-02-09T21:54:34.119Z,6.10
2023-02-09T21:57:03.228Z,5.30
2023-02-09T21:59:32.095Z,5.70
2023-02-09T22:02:00.763Z,8.40
2023-02-09T22:04:29.954Z,5.10
2023-02-09T22:06:58.565Z,4.70
2023-02-09T22:09:28.297Z,4.90
2023-02-09T22:11:56.854Z,6.30
2023-02-09T22:14:25.307Z,4.20
2023-02-09T22:16:53.881Z,3.80
2023-02-09T22:19:23.005Z,2.90
2023-02-09T22:21:51.734Z,3.30
2023-02-09T22:24:21.401Z,6.40
2023-02-09T22:26:52.238Z,7.50
2023-02-09T22:29:21.328Z,8.10
2023-02-09T22:31:51.563Z,6.40
2023-02-09T22:34:20.550Z,5.00
2023-02-09T22:36:52.491Z,6.90
2023-02-09T22:39:21.557Z,7.70
2023-02-09T22:41:51.407Z,4.50
2023-02-09T22:44:19.980Z,5.50
2023-02-09T22:46:48.791Z,6.60
2023-02-09T22:49:19.428Z,6.30
2023-02-09T22:51:48.509Z,6.10
2023-02-09T22:54:18.752Z,4.80
2023-02-09T22:56:47.332Z,4.40
2023-02-09T22:59:16.312Z,6.50
2023-02-09T23:01:44.857Z,6.80
2023-02-09T23:04:13.489Z,6.20
2023-02-09T23:06:42.100Z,7.30
2023-02-09T23:09:11.775Z,7.80
2023-02-09T23:11:40.051Z,7.00
2023-02-09T23:14:11.025Z,5.50
2023-02-09T23:16:40.498Z,6.10
2023-02-09T23:19:11.107Z,6.20
2023-02-09T23:21:41.679Z,5.40
2023-02-09T23:24:10.992Z,5.00
2023-02-09T23:26:40.251Z,4.10
2023-02-09T23:29:10.286Z,5.10
2023-02-09T23:31:39.070Z,5.20
2023-02-09T23:34:07.536Z,5.10
2023-02-09T23:36:37.172Z,5.30
2023-02-09T23:39:06.093Z,6.40
2023-02-09T23:41:35.144Z,6.60
2023-02-09T23:44:04.805Z,6.40
2023-02-09T23:46:33.300Z,7.20
2023-02-09T23:49:02.102Z,7.00
2023-02-09T23:51:32.666Z,7.40
2023-02-09T23:54:02.275Z,4.90
2023-02-09T23:56:37.319Z,5.60
2023-02-09T23:59:07.741Z,7.00
